Terminal Aerodrome Forecast
Issued by NWS Twin Cities, MN

Home | Current Version | Previous Version | Text Only | Print | Product List | Glossary On
Versions: 1 2 3 4 5 6 7 8 9 10 11 12 13 14 15
000
FTUS43 KMPX 181136
TAFSTC
TAF
KSTC 181136Z 1812/1912 17004KT P6SM SCT070
     FM181500 36005KT 6SM -SHRA VCTS SCT035CB BKN060
      TEMPO 1817/1821 4SM TS BKN025CB OVC040
     FM182100 04007KT 6SM -SHRA VCTS BKN040CB BKN080
     FM182300 04005KT P6SM SCT030 BKN070
     FM190200 VRB03KT P6SM BKN025
     FM190900 05004KT P6SM FEW040=

USA.gov is the U.S. government's official web portal to all federal, state and local government web resources and services.